CheckWX is a tool to help pilots better visualize weather data.  It is not intended as a substitute for an official pre-flight weather briefing.

18:07:05 UTC

NCRG METAR
Rarotonga International Airport
Avarua, Samoa
Current

37 mins ago

NCRG 181730Z AUTO 05008KT 9999 SCT021/// 23/20 Q1014
Observed
Jul-18 @ 17:30 UTC
Wind
  • 050° at 8 KTS
Visibility
10,000+ meters
Flight Rules
VFR
Cloud Levels
  • Scattered at 2,100' AGL
Temperature
23°C / 73°F
Dewpoint
20°C / 68°F
Humidity
83%
Altimeter
29.94" Hg
Pressure
1013.92 hPa
Previous

1 hour ago

NCRG 181700Z AUTO 06008KT 9999 SCT021/// SCT026/// BKN032/// 23/20 Q1014
Observed
Jul-18 @ 17:00 UTC
Wind
  • 060° at 8 KTS
Visibility
10,000+ meters
Flight Rules
VFR
Cloud Levels
  • Scattered at 2,100' AGL
  • Scattered at 2,600' AGL
  • Broken at 3,200' AGL
Temperature
23°C / 73°F
Dewpoint
20°C / 68°F
Humidity
83%
Altimeter
29.94" Hg
Pressure
1013.92 hPa
Previous

2 hours ago

NCRG 181630Z AUTO 05007KT 020V080 9999 SCT020/// 23/20 Q1014
Observed
Jul-18 @ 16:30 UTC
Wind
  • 050° at 7 KTS
Visibility
10,000+ meters
Flight Rules
VFR
Cloud Levels
  • Scattered at 2,000' AGL
Temperature
23°C / 73°F
Dewpoint
20°C / 68°F
Humidity
83%
Altimeter
29.94" Hg
Pressure
1013.92 hPa